Seoul, South Korea

2:01 AM KST on August 29, 2016 (GMT +0900)
Incheon International | | Change Station

Elev 23 ft 37.47 °N, 126.45 °E | Updated 31 minutes ago

Clear
Clear
70 °F
Feels Like 70 °F
N
14
Wind Variable Wind from North

Today
High -- | Low -- °F
--% Chance of Precip.
Yesterday
High -- | Low -- °F
Precip. -- in
Pressure 29.68 in
Visibility -9999.0 miles
Clouds
Dew Point 50 °F
Humidity 49%
Rainfall 0.00 in
Snow Depth Not available.
6:00 AM 7:05 PM
Waning Crescent, 14% visible
METAR RKSI 281630Z 36012KT 330V050 CAVOK 21/10 Q1005 NOSIG
Pressure 29.68 in
Visibility -9999.0 miles
Clouds
Dew Point 50 °F
Humidity 49%
Rainfall 0.00 in
Snow Depth Not available.
6:00 AM 7:05 PM
Waning Crescent, 14% visible
METAR RKSI 281630Z 36012KT 330V050 CAVOK 21/10 Q1005 NOSIG

10-Day Weather Forecast

No radar image for this location.
×

Almanac

Astronomy

Aug. 29, 2016 Rise Set
Actual Time
Civil Twilight
Nautical Twilight
Astronomical Twilight
Moon
Length of Visible Light
Length of Day
Tomorrow will be .
, % of the Moon is Illuminated

Today's Extremes

Country Highs Country Lows

Community

WunderPhotos

Upload Photos

1,935,627 photos uploaded!

WunderBlog® & News

Nearby

Air Quality

  Air Quality AQ Index Pollutant
Not available.

Snow Depth

Station Depth Elevation

Earthquake Activity

City Distance Mag. Time & Date
Minimum magnitude displayed is 2.5.

Coastal Water Temperatures

Place Temperature

Stations

Nearby Weather Stations

Station Location Temp. Windchill Dew Point Humidity Wind Precip. Elev Updated Type